sensor_id;sensor_type;location;lat;lon;timestamp;P1;durP1;ratioP1;P2;durP2;ratioP2
59474;SDS011;45288;51.136;16.928;2023-03-01T00:02:19;89.88;;;43.38;;
59474;SDS011;45288;51.136;16.928;2023-03-01T00:04:45;83.18;;;42.80;;
59474;SDS011;45288;51.136;16.928;2023-03-01T00:07:10;90.65;;;43.20;;
59474;SDS011;45288;51.136;16.928;2023-03-01T00:09:36;87.70;;;43.90;;
59474;SDS011;45288;51.136;16.928;2023-03-01T00:12:03;95.78;;;45.78;;
59474;SDS011;45288;51.136;16.928;2023-03-01T00:14:28;93.93;;;45.58;;
59474;SDS011;45288;51.136;16.928;2023-03-01T00:16:54;99.37;;;46.77;;
59474;SDS011;45288;51.136;16.928;2023-03-01T00:19:20;94.38;;;45.45;;
59474;SDS011;45288;51.136;16.928;2023-03-01T00:21:47;92.13;;;44.45;;
59474;SDS011;45288;51.136;16.928;2023-03-01T00:24:13;97.10;;;44.72;;
59474;SDS011;45288;51.136;16.928;2023-03-01T00:26:39;99.97;;;45.75;;
59474;SDS011;45288;51.136;16.928;2023-03-01T00:29:04;95.43;;;44.50;;
59474;SDS011;45288;51.136;16.928;2023-03-01T00:31:31;95.87;;;46.63;;
59474;SDS011;45288;51.136;16.928;2023-03-01T00:33:59;95.93;;;45.60;;
59474;SDS011;45288;51.136;16.928;2023-03-01T00:36:25;101.45;;;46.90;;
59474;SDS011;45288;51.136;16.928;2023-03-01T00:38:51;102.78;;;47.92;;
59474;SDS011;45288;51.136;16.928;2023-03-01T00:41:19;101.82;;;47.78;;
59474;SDS011;45288;51.136;16.928;2023-03-01T00:43:45;111.18;;;50.13;;
59474;SDS011;45288;51.136;16.928;2023-03-01T00:46:11;122.32;;;53.85;;
59474;SDS011;45288;51.136;16.928;2023-03-01T00:48:37;125.45;;;53.20;;
59474;SDS011;45288;51.136;16.928;2023-03-01T00:51:14;123.13;;;52.33;;
59474;SDS011;45288;51.136;16.928;2023-03-01T00:53:39;109.00;;;51.05;;
59474;SDS011;45288;51.136;16.928;2023-03-01T00:56:09;128.90;;;57.85;;
59474;SDS011;45288;51.136;16.928;2023-03-01T00:58:35;122.25;;;56.65;;
59474;SDS011;45288;51.136;16.928;2023-03-01T01:01:00;121.35;;;55.20;;
59474;SDS011;45288;51.136;16.928;2023-03-01T01:03:27;118.97;;;54.72;;
59474;SDS011;45288;51.136;16.928;2023-03-01T01:05:53;119.43;;;53.47;;
59474;SDS011;45288;51.136;16.928;2023-03-01T01:08:19;114.50;;;52.60;;
59474;SDS011;45288;51.136;16.928;2023-03-01T01:10:45;111.95;;;51.67;;
59474;SDS011;45288;51.136;16.928;2023-03-01T01:13:12;114.40;;;53.22;;
59474;SDS011;45288;51.136;16.928;2023-03-01T01:15:37;123.10;;;54.97;;
59474;SDS011;45288;51.136;16.928;2023-03-01T01:18:03;121.88;;;55.45;;
59474;SDS011;45288;51.136;16.928;2023-03-01T01:20:29;117.50;;;54.33;;
59474;SDS011;45288;51.136;16.928;2023-03-01T01:22:54;113.80;;;52.20;;
59474;SDS011;45288;51.136;16.928;2023-03-01T01:25:20;114.55;;;52.85;;
59474;SDS011;45288;51.136;16.928;2023-03-01T01:27:46;114.17;;;50.13;;
59474;SDS011;45288;51.136;16.928;2023-03-01T01:30:11;114.67;;;50.23;;
59474;SDS011;45288;51.136;16.928;2023-03-01T01:32:37;112.93;;;53.20;;
59474;SDS011;45288;51.136;16.928;2023-03-01T01:35:03;111.20;;;51.17;;
59474;SDS011;45288;51.136;16.928;2023-03-01T01:37:29;114.70;;;51.45;;
59474;SDS011;45288;51.136;16.928;2023-03-01T01:39:57;115.40;;;52.38;;
59474;SDS011;45288;51.136;16.928;2023-03-01T01:42:24;112.47;;;52.03;;
59474;SDS011;45288;51.136;16.928;2023-03-01T01:47:35;112.55;;;52.78;;
59474;SDS011;45288;51.136;16.928;2023-03-01T01:50:00;111.23;;;52.97;;
59474;SDS011;45288;51.136;16.928;2023-03-01T01:52:27;114.40;;;51.70;;
59474;SDS011;45288;51.136;16.928;2023-03-01T01:54:57;108.90;;;49.20;;
59474;SDS011;45288;51.136;16.928;2023-03-01T01:57:24;107.05;;;49.70;;
59474;SDS011;45288;51.136;16.928;2023-03-01T01:59:53;113.63;;;51.90;;
59474;SDS011;45288;51.136;16.928;2023-03-01T02:02:20;113.63;;;52.17;;
59474;SDS011;45288;51.136;16.928;2023-03-01T02:04:46;111.57;;;52.90;;
59474;SDS011;45288;51.136;16.928;2023-03-01T02:07:22;116.07;;;53.63;;
59474;SDS011;45288;51.136;16.928;2023-03-01T02:09:49;108.50;;;51.03;;
59474;SDS011;45288;51.136;16.928;2023-03-01T02:12:19;119.38;;;55.83;;
59474;SDS011;45288;51.136;16.928;2023-03-01T02:14:46;120.03;;;56.22;;
59474;SDS011;45288;51.136;16.928;2023-03-01T02:17:11;118.30;;;56.03;;
59474;SDS011;45288;51.136;16.928;2023-03-01T02:20:23;114.75;;;55.08;;
59474;SDS011;45288;51.136;16.928;2023-03-01T02:22:28;110.13;;;53.63;;
59474;SDS011;45288;51.136;16.928;2023-03-01T02:27:54;117.13;;;54.70;;
59474;SDS011;45288;51.136;16.928;2023-03-01T02:30:15;114.35;;;53.80;;
59474;SDS011;45288;51.136;16.928;2023-03-01T02:32:42;119.57;;;54.35;;
59474;SDS011;45288;51.136;16.928;2023-03-01T02:35:12;123.97;;;54.47;;
59474;SDS011;45288;51.136;16.928;2023-03-01T02:37:39;116.13;;;54.53;;
59474;SDS011;45288;51.136;16.928;2023-03-01T02:40:06;109.35;;;52.50;;
59474;SDS011;45288;51.136;16.928;2023-03-01T02:42:40;105.90;;;50.97;;
59474;SDS011;45288;51.136;16.928;2023-03-01T02:45:07;117.88;;;53.58;;
59474;SDS011;45288;51.136;16.928;2023-03-01T02:47:33;107.10;;;53.20;;
59474;SDS011;45288;51.136;16.928;2023-03-01T02:49:58;112.50;;;52.40;;
59474;SDS011;45288;51.136;16.928;2023-03-01T02:52:37;112.57;;;54.63;;
59474;SDS011;45288;51.136;16.928;2023-03-01T02:57:31;111.07;;;52.23;;
59474;SDS011;45288;51.136;16.928;2023-03-01T02:59:59;114.70;;;52.43;;
59474;SDS011;45288;51.136;16.928;2023-03-01T03:02:28;109.63;;;50.53;;
59474;SDS011;45288;51.136;16.928;2023-03-01T03:05:14;109.95;;;51.50;;
59474;SDS011;45288;51.136;16.928;2023-03-01T03:07:42;108.78;;;51.13;;
59474;SDS011;45288;51.136;16.928;2023-03-01T03:10:09;104.82;;;50.35;;
59474;SDS011;45288;51.136;16.928;2023-03-01T03:12:37;110.47;;;51.60;;
59474;SDS011;45288;51.136;16.928;2023-03-01T03:15:04;111.57;;;50.58;;
59474;SDS011;45288;51.136;16.928;2023-03-01T03:17:35;105.40;;;50.20;;
59474;SDS011;45288;51.136;16.928;2023-03-01T03:20:01;110.63;;;51.90;;
59474;SDS011;45288;51.136;16.928;2023-03-01T03:22:28;108.18;;;50.72;;
59474;SDS011;45288;51.136;16.928;2023-03-01T03:24:54;102.13;;;50.63;;
59474;SDS011;45288;51.136;16.928;2023-03-01T03:27:20;107.83;;;51.60;;
59474;SDS011;45288;51.136;16.928;2023-03-01T03:29:45;110.63;;;52.40;;
59474;SDS011;45288;51.136;16.928;2023-03-01T03:32:11;106.78;;;52.25;;
59474;SDS011;45288;51.136;16.928;2023-03-01T03:34:36;110.10;;;51.63;;
59474;SDS011;45288;51.136;16.928;2023-03-01T03:37:03;106.40;;;51.43;;
59474;SDS011;45288;51.136;16.928;2023-03-01T03:39:28;104.17;;;50.47;;
59474;SDS011;45288;51.136;16.928;2023-03-01T03:42:00;111.68;;;52.33;;
59474;SDS011;45288;51.136;16.928;2023-03-01T03:44:26;115.75;;;54.45;;
59474;SDS011;45288;51.136;16.928;2023-03-01T03:46:51;117.57;;;51.57;;
59474;SDS011;45288;51.136;16.928;2023-03-01T03:49:17;123.70;;;54.43;;
59474;SDS011;45288;51.136;16.928;2023-03-01T03:51:44;114.57;;;52.67;;
59474;SDS011;45288;51.136;16.928;2023-03-01T03:54:10;120.63;;;54.25;;
59474;SDS011;45288;51.136;16.928;2023-03-01T03:56:36;119.57;;;53.63;;
59474;SDS011;45288;51.136;16.928;2023-03-01T03:59:02;126.90;;;56.90;;
59474;SDS011;45288;51.136;16.928;2023-03-01T04:01:27;125.25;;;58.08;;
59474;SDS011;45288;51.136;16.928;2023-03-01T04:03:53;126.67;;;57.70;;
59474;SDS011;45288;51.136;16.928;2023-03-01T04:06:20;128.30;;;57.60;;
59474;SDS011;45288;51.136;16.928;2023-03-01T04:08:46;129.80;;;58.58;;
59474;SDS011;45288;51.136;16.928;2023-03-01T04:11:11;129.90;;;57.00;;
59474;SDS011;45288;51.136;16.928;2023-03-01T04:13:53;125.43;;;56.33;;
59474;SDS011;45288;51.136;16.928;2023-03-01T04:16:19;126.13;;;55.60;;
59474;SDS011;45288;51.136;16.928;2023-03-01T04:18:45;118.68;;;54.60;;
59474;SDS011;45288;51.136;16.928;2023-03-01T04:21:10;125.72;;;55.10;;
59474;SDS011;45288;51.136;16.928;2023-03-01T04:23:37;126.25;;;55.92;;
59474;SDS011;45288;51.136;16.928;2023-03-01T04:26:03;127.63;;;54.83;;
59474;SDS011;45288;51.136;16.928;2023-03-01T04:28:33;110.53;;;51.67;;
59474;SDS011;45288;51.136;16.928;2023-03-01T04:31:03;105.90;;;49.42;;
59474;SDS011;45288;51.136;16.928;2023-03-01T04:33:38;112.53;;;51.00;;
59474;SDS011;45288;51.136;16.928;2023-03-01T04:36:04;108.90;;;49.63;;
59474;SDS011;45288;51.136;16.928;2023-03-01T04:38:30;111.00;;;49.63;;
59474;SDS011;45288;51.136;16.928;2023-03-01T04:40:56;111.50;;;50.53;;
59474;SDS011;45288;51.136;16.928;2023-03-01T04:43:21;113.70;;;51.15;;
59474;SDS011;45288;51.136;16.928;2023-03-01T04:45:47;117.70;;;51.78;;
59474;SDS011;45288;51.136;16.928;2023-03-01T04:48:12;117.37;;;52.47;;
59474;SDS011;45288;51.136;16.928;2023-03-01T04:50:38;127.03;;;54.17;;
59474;SDS011;45288;51.136;16.928;2023-03-01T04:53:04;114.40;;;53.10;;
59474;SDS011;45288;51.136;16.928;2023-03-01T04:55:29;112.60;;;52.13;;
59474;SDS011;45288;51.136;16.928;2023-03-01T04:57:55;114.78;;;54.28;;
59474;SDS011;45288;51.136;16.928;2023-03-01T05:00:21;113.20;;;53.17;;
59474;SDS011;45288;51.136;16.928;2023-03-01T05:02:52;117.25;;;52.28;;
59474;SDS011;45288;51.136;16.928;2023-03-01T05:05:21;109.38;;;51.28;;
59474;SDS011;45288;51.136;16.928;2023-03-01T05:07:50;105.15;;;48.67;;
59474;SDS011;45288;51.136;16.928;2023-03-01T05:10:16;108.88;;;49.63;;
59474;SDS011;45288;51.136;16.928;2023-03-01T05:12:42;112.13;;;49.88;;
59474;SDS011;45288;51.136;16.928;2023-03-01T05:15:07;107.50;;;50.15;;
59474;SDS011;45288;51.136;16.928;2023-03-01T05:17:33;109.97;;;49.03;;
59474;SDS011;45288;51.136;16.928;2023-03-01T05:19:59;105.38;;;48.28;;
59474;SDS011;45288;51.136;16.928;2023-03-01T05:22:25;109.82;;;48.65;;
59474;SDS011;45288;51.136;16.928;2023-03-01T05:24:50;99.05;;;47.67;;
59474;SDS011;45288;51.136;16.928;2023-03-01T05:27:16;105.30;;;47.83;;
59474;SDS011;45288;51.136;16.928;2023-03-01T05:29:42;99.32;;;46.97;;
59474;SDS011;45288;51.136;16.928;2023-03-01T05:32:07;103.15;;;46.70;;
59474;SDS011;45288;51.136;16.928;2023-03-01T05:34:34;102.00;;;47.50;;
59474;SDS011;45288;51.136;16.928;2023-03-01T05:37:01;114.32;;;49.75;;
59474;SDS011;45288;51.136;16.928;2023-03-01T05:39:28;124.30;;;51.70;;
59474;SDS011;45288;51.136;16.928;2023-03-01T05:41:54;113.45;;;49.83;;
59474;SDS011;45288;51.136;16.928;2023-03-01T05:44:21;108.95;;;49.75;;
59474;SDS011;45288;51.136;16.928;2023-03-01T05:46:47;108.15;;;48.78;;
59474;SDS011;45288;51.136;16.928;2023-03-01T05:49:12;114.32;;;51.72;;
59474;SDS011;45288;51.136;16.928;2023-03-01T05:51:39;107.50;;;48.95;;
59474;SDS011;45288;51.136;16.928;2023-03-01T05:54:04;108.32;;;50.03;;
59474;SDS011;45288;51.136;16.928;2023-03-01T05:56:34;110.07;;;48.60;;
59474;SDS011;45288;51.136;16.928;2023-03-01T05:59:00;115.77;;;51.17;;
59474;SDS011;45288;51.136;16.928;2023-03-01T06:01:26;117.87;;;53.43;;
59474;SDS011;45288;51.136;16.928;2023-03-01T06:03:51;118.97;;;52.33;;
59474;SDS011;45288;51.136;16.928;2023-03-01T06:06:17;125.05;;;53.00;;
59474;SDS011;45288;51.136;16.928;2023-03-01T06:08:42;116.83;;;52.77;;
59474;SDS011;45288;51.136;16.928;2023-03-01T06:11:08;125.10;;;54.93;;
59474;SDS011;45288;51.136;16.928;2023-03-01T06:13:34;128.18;;;56.42;;
59474;SDS011;45288;51.136;16.928;2023-03-01T06:15:59;119.40;;;53.20;;
59474;SDS011;45288;51.136;16.928;2023-03-01T06:18:25;119.77;;;53.27;;
59474;SDS011;45288;51.136;16.928;2023-03-01T06:20:54;113.57;;;53.58;;
59474;SDS011;45288;51.136;16.928;2023-03-01T06:23:19;121.13;;;53.88;;
59474;SDS011;45288;51.136;16.928;2023-03-01T06:25:45;119.00;;;54.47;;
59474;SDS011;45288;51.136;16.928;2023-03-01T06:28:10;116.32;;;53.08;;
59474;SDS011;45288;51.136;16.928;2023-03-01T06:30:36;120.93;;;54.90;;
59474;SDS011;45288;51.136;16.928;2023-03-01T06:33:02;122.07;;;53.80;;
59474;SDS011;45288;51.136;16.928;2023-03-01T06:35:29;124.50;;;56.42;;
59474;SDS011;45288;51.136;16.928;2023-03-01T06:37:55;111.13;;;52.80;;
59474;SDS011;45288;51.136;16.928;2023-03-01T06:40:21;121.78;;;55.53;;
59474;SDS011;45288;51.136;16.928;2023-03-01T06:42:48;112.78;;;52.63;;
59474;SDS011;45288;51.136;16.928;2023-03-01T06:45:14;119.03;;;55.35;;
59474;SDS011;45288;51.136;16.928;2023-03-01T06:47:40;127.17;;;55.30;;
59474;SDS011;45288;51.136;16.928;2023-03-01T06:50:05;120.03;;;54.83;;
59474;SDS011;45288;51.136;16.928;2023-03-01T06:52:31;126.70;;;57.88;;
59474;SDS011;45288;51.136;16.928;2023-03-01T06:54:57;115.60;;;56.65;;
59474;SDS011;45288;51.136;16.928;2023-03-01T06:57:23;120.82;;;56.17;;
59474;SDS011;45288;51.136;16.928;2023-03-01T06:59:48;106.37;;;53.80;;
59474;SDS011;45288;51.136;16.928;2023-03-01T07:02:14;115.75;;;54.72;;
59474;SDS011;45288;51.136;16.928;2023-03-01T07:04:40;132.82;;;60.63;;
59474;SDS011;45288;51.136;16.928;2023-03-01T07:07:06;135.80;;;64.60;;
59474;SDS011;45288;51.136;16.928;2023-03-01T07:09:32;139.93;;;63.85;;
59474;SDS011;45288;51.136;16.928;2023-03-01T07:11:57;141.70;;;66.37;;
59474;SDS011;45288;51.136;16.928;2023-03-01T07:14:23;131.45;;;64.28;;
59474;SDS011;45288;51.136;16.928;2023-03-01T07:16:54;145.63;;;67.63;;
59474;SDS011;45288;51.136;16.928;2023-03-01T07:19:21;141.35;;;64.25;;
59474;SDS011;45288;51.136;16.928;2023-03-01T07:21:46;133.55;;;63.00;;
59474;SDS011;45288;51.136;16.928;2023-03-01T07:24:12;133.70;;;63.17;;
59474;SDS011;45288;51.136;16.928;2023-03-01T07:26:38;138.97;;;65.27;;
59474;SDS011;45288;51.136;16.928;2023-03-01T07:29:05;136.32;;;62.05;;
59474;SDS011;45288;51.136;16.928;2023-03-01T07:31:31;136.02;;;65.32;;
59474;SDS011;45288;51.136;16.928;2023-03-01T07:33:56;133.60;;;63.27;;
59474;SDS011;45288;51.136;16.928;2023-03-01T07:36:22;137.25;;;66.40;;
59474;SDS011;45288;51.136;16.928;2023-03-01T07:38:48;125.47;;;61.97;;
59474;SDS011;45288;51.136;16.928;2023-03-01T07:41:13;129.63;;;62.45;;
59474;SDS011;45288;51.136;16.928;2023-03-01T07:43:39;119.37;;;60.50;;
59474;SDS011;45288;51.136;16.928;2023-03-01T07:46:05;120.07;;;57.95;;
59474;SDS011;45288;51.136;16.928;2023-03-01T07:48:31;113.15;;;56.67;;
59474;SDS011;45288;51.136;16.928;2023-03-01T07:50:58;110.03;;;54.67;;
59474;SDS011;45288;51.136;16.928;2023-03-01T07:53:24;102.88;;;53.28;;
59474;SDS011;45288;51.136;16.928;2023-03-01T07:55:50;100.43;;;50.38;;
59474;SDS011;45288;51.136;16.928;2023-03-01T07:58:16;99.65;;;50.42;;
59474;SDS011;45288;51.136;16.928;2023-03-01T08:00:42;92.80;;;47.72;;
59474;SDS011;45288;51.136;16.928;2023-03-01T08:03:07;96.67;;;48.17;;
59474;SDS011;45288;51.136;16.928;2023-03-01T08:05:33;93.88;;;47.75;;
59474;SDS011;45288;51.136;16.928;2023-03-01T08:07:59;90.97;;;46.13;;
59474;SDS011;45288;51.136;16.928;2023-03-01T08:10:24;96.67;;;47.83;;
59474;SDS011;45288;51.136;16.928;2023-03-01T08:12:51;89.00;;;45.70;;
59474;SDS011;45288;51.136;16.928;2023-03-01T08:15:16;89.43;;;44.70;;
59474;SDS011;45288;51.136;16.928;2023-03-01T08:17:44;80.83;;;42.63;;
59474;SDS011;45288;51.136;16.928;2023-03-01T08:20:09;85.77;;;43.83;;
59474;SDS011;45288;51.136;16.928;2023-03-01T08:22:37;81.65;;;42.90;;
59474;SDS011;45288;51.136;16.928;2023-03-01T08:25:03;77.57;;;41.63;;
59474;SDS011;45288;51.136;16.928;2023-03-01T08:27:29;79.13;;;40.65;;
59474;SDS011;45288;51.136;16.928;2023-03-01T08:29:54;80.10;;;40.87;;
59474;SDS011;45288;51.136;16.928;2023-03-01T08:32:20;77.22;;;40.22;;
59474;SDS011;45288;51.136;16.928;2023-03-01T08:34:46;75.83;;;40.23;;
59474;SDS011;45288;51.136;16.928;2023-03-01T08:37:11;75.05;;;39.40;;
59474;SDS011;45288;51.136;16.928;2023-03-01T08:39:37;71.35;;;38.13;;
59474;SDS011;45288;51.136;16.928;2023-03-01T08:42:03;75.83;;;39.87;;
59474;SDS011;45288;51.136;16.928;2023-03-01T08:44:28;77.20;;;38.25;;
59474;SDS011;45288;51.136;16.928;2023-03-01T08:46:54;73.60;;;37.47;;
59474;SDS011;45288;51.136;16.928;2023-03-01T08:49:21;78.88;;;37.15;;
59474;SDS011;45288;51.136;16.928;2023-03-01T08:51:47;71.22;;;35.85;;
59474;SDS011;45288;51.136;16.928;2023-03-01T08:54:14;76.45;;;37.88;;
59474;SDS011;45288;51.136;16.928;2023-03-01T08:56:40;67.35;;;36.08;;
59474;SDS011;45288;51.136;16.928;2023-03-01T08:59:06;60.65;;;33.00;;
59474;SDS011;45288;51.136;16.928;2023-03-01T09:01:32;51.53;;;29.08;;
59474;SDS011;45288;51.136;16.928;2023-03-01T09:03:57;53.95;;;28.63;;
59474;SDS011;45288;51.136;16.928;2023-03-01T09:06:23;65.77;;;35.53;;
59474;SDS011;45288;51.136;16.928;2023-03-01T09:08:49;64.38;;;35.47;;
59474;SDS011;45288;51.136;16.928;2023-03-01T09:11:16;63.25;;;34.80;;
59474;SDS011;45288;51.136;16.928;2023-03-01T09:13:43;69.13;;;35.25;;
59474;SDS011;45288;51.136;16.928;2023-03-01T09:16:08;64.70;;;34.38;;
59474;SDS011;45288;51.136;16.928;2023-03-01T09:18:34;61.25;;;33.72;;
59474;SDS011;45288;51.136;16.928;2023-03-01T09:21:02;65.82;;;35.80;;
59474;SDS011;45288;51.136;16.928;2023-03-01T09:23:27;71.53;;;35.50;;
59474;SDS011;45288;51.136;16.928;2023-03-01T09:25:53;56.37;;;32.47;;
59474;SDS011;45288;51.136;16.928;2023-03-01T09:28:19;53.03;;;31.63;;
59474;SDS011;45288;51.136;16.928;2023-03-01T09:30:44;57.97;;;31.57;;
59474;SDS011;45288;51.136;16.928;2023-03-01T09:33:10;61.53;;;32.50;;
59474;SDS011;45288;51.136;16.928;2023-03-01T09:35:40;61.07;;;32.23;;
59474;SDS011;45288;51.136;16.928;2023-03-01T09:38:11;59.88;;;32.10;;
59474;SDS011;45288;51.136;16.928;2023-03-01T09:40:41;50.60;;;29.98;;
59474;SDS011;45288;51.136;16.928;2023-03-01T09:43:21;53.38;;;30.23;;
59474;SDS011;45288;51.136;16.928;2023-03-01T09:45:49;53.83;;;30.70;;
59474;SDS011;45288;51.136;16.928;2023-03-01T09:48:16;55.25;;;30.75;;
59474;SDS011;45288;51.136;16.928;2023-03-01T09:50:44;53.00;;;30.05;;
59474;SDS011;45288;51.136;16.928;2023-03-01T09:53:22;57.17;;;30.92;;
59474;SDS011;45288;51.136;16.928;2023-03-01T10:01:16;50.88;;;29.40;;
59474;SDS011;45288;51.136;16.928;2023-03-01T10:06:19;49.90;;;29.13;;
59474;SDS011;45288;51.136;16.928;2023-03-01T10:08:59;49.63;;;29.02;;
59474;SDS011;45288;51.136;16.928;2023-03-01T10:11:36;50.15;;;28.70;;
59474;SDS011;45288;51.136;16.928;2023-03-01T10:16:50;50.70;;;27.95;;
59474;SDS011;45288;51.136;16.928;2023-03-01T10:19:21;56.28;;;29.17;;
59474;SDS011;45288;51.136;16.928;2023-03-01T10:21:48;54.07;;;28.87;;
59474;SDS011;45288;51.136;16.928;2023-03-01T10:24:16;59.15;;;31.33;;
59474;SDS011;45288;51.136;16.928;2023-03-01T10:26:57;54.17;;;30.10;;
59474;SDS011;45288;51.136;16.928;2023-03-01T10:29:31;54.30;;;29.70;;
59474;SDS011;45288;51.136;16.928;2023-03-01T10:32:01;48.30;;;29.00;;
59474;SDS011;45288;51.136;16.928;2023-03-01T10:34:30;49.58;;;28.38;;
59474;SDS011;45288;51.136;16.928;2023-03-01T10:36:57;47.78;;;27.40;;
59474;SDS011;45288;51.136;16.928;2023-03-01T10:39:25;52.53;;;27.87;;
59474;SDS011;45288;51.136;16.928;2023-03-01T10:42:01;48.20;;;26.73;;
59474;SDS011;45288;51.136;16.928;2023-03-01T10:44:37;52.97;;;28.77;;
59474;SDS011;45288;51.136;16.928;2023-03-01T10:47:02;46.22;;;26.30;;
59474;SDS011;45288;51.136;16.928;2023-03-01T10:49:28;43.90;;;25.70;;
59474;SDS011;45288;51.136;16.928;2023-03-01T10:51:54;44.93;;;25.50;;
59474;SDS011;45288;51.136;16.928;2023-03-01T10:56:51;43.23;;;24.90;;
59474;SDS011;45288;51.136;16.928;2023-03-01T10:59:24;43.80;;;24.15;;
59474;SDS011;45288;51.136;16.928;2023-03-01T11:02:01;42.10;;;24.17;;
59474;SDS011;45288;51.136;16.928;2023-03-01T11:04:27;45.85;;;25.17;;
59474;SDS011;45288;51.136;16.928;2023-03-01T11:06:59;48.47;;;27.75;;
59474;SDS011;45288;51.136;16.928;2023-03-01T11:09:25;46.30;;;26.27;;
59474;SDS011;45288;51.136;16.928;2023-03-01T11:11:57;40.42;;;23.85;;
59474;SDS011;45288;51.136;16.928;2023-03-01T11:14:27;44.00;;;24.43;;
59474;SDS011;45288;51.136;16.928;2023-03-01T11:17:01;38.90;;;22.67;;
59474;SDS011;45288;51.136;16.928;2023-03-01T11:19:28;35.67;;;21.80;;
59474;SDS011;45288;51.136;16.928;2023-03-01T11:21:58;34.95;;;20.83;;
59474;SDS011;45288;51.136;16.928;2023-03-01T11:24:30;36.03;;;20.83;;
59474;SDS011;45288;51.136;16.928;2023-03-01T11:26:57;39.63;;;20.10;;
59474;SDS011;45288;51.136;16.928;2023-03-01T11:29:41;34.78;;;19.40;;
59474;SDS011;45288;51.136;16.928;2023-03-01T11:32:08;37.47;;;20.13;;
59474;SDS011;45288;51.136;16.928;2023-03-01T11:37:01;31.97;;;18.93;;
59474;SDS011;45288;51.136;16.928;2023-03-01T11:39:33;32.40;;;19.65;;
59474;SDS011;45288;51.136;16.928;2023-03-01T11:44:37;34.67;;;19.95;;
59474;SDS011;45288;51.136;16.928;2023-03-01T11:47:14;33.75;;;19.08;;
59474;SDS011;45288;51.136;16.928;2023-03-01T11:49:44;33.58;;;19.35;;
59474;SDS011;45288;51.136;16.928;2023-03-01T11:52:19;32.03;;;18.95;;
59474;SDS011;45288;51.136;16.928;2023-03-01T12:00:03;31.98;;;18.30;;
59474;SDS011;45288;51.136;16.928;2023-03-01T12:16:10;29.48;;;18.00;;
59474;SDS011;45288;51.136;16.928;2023-03-01T12:18:54;32.08;;;18.63;;
59474;SDS011;45288;51.136;16.928;2023-03-01T12:23:56;28.45;;;17.80;;
59474;SDS011;45288;51.136;16.928;2023-03-01T12:31:36;33.40;;;18.03;;
59474;SDS011;45288;51.136;16.928;2023-03-01T12:42:02;25.65;;;14.15;;
59474;SDS011;45288;51.136;16.928;2023-03-01T12:49:31;23.47;;;11.60;;
59474;SDS011;45288;51.136;16.928;2023-03-01T12:51:59;19.33;;;10.75;;
59474;SDS011;45288;51.136;16.928;2023-03-01T12:54:32;20.60;;;10.60;;
59474;SDS011;45288;51.136;16.928;2023-03-01T12:57:24;19.10;;;10.57;;
59474;SDS011;45288;51.136;16.928;2023-03-01T13:02:44;17.52;;;10.35;;
59474;SDS011;45288;51.136;16.928;2023-03-01T13:07:41;16.83;;;10.43;;
59474;SDS011;45288;51.136;16.928;2023-03-01T13:10:19;15.50;;;9.10;;
59474;SDS011;45288;51.136;16.928;2023-03-01T13:17:59;15.95;;;9.10;;
59474;SDS011;45288;51.136;16.928;2023-03-01T13:23:00;16.37;;;9.60;;
59474;SDS011;45288;51.136;16.928;2023-03-01T13:25:27;21.33;;;11.05;;
59474;SDS011;45288;51.136;16.928;2023-03-01T13:27:53;18.52;;;10.60;;
59474;SDS011;45288;51.136;16.928;2023-03-01T13:30:39;19.15;;;11.32;;
59474;SDS011;45288;51.136;16.928;2023-03-01T13:35:49;16.58;;;10.65;;
59474;SDS011;45288;51.136;16.928;2023-03-01T13:40:59;16.75;;;10.15;;
59474;SDS011;45288;51.136;16.928;2023-03-01T13:43:27;19.33;;;10.40;;
59474;SDS011;45288;51.136;16.928;2023-03-01T13:45:53;18.10;;;10.57;;
59474;SDS011;45288;51.136;16.928;2023-03-01T13:48:22;19.02;;;10.65;;
59474;SDS011;45288;51.136;16.928;2023-03-01T13:50:50;18.13;;;10.48;;
59474;SDS011;45288;51.136;16.928;2023-03-01T13:53:21;20.23;;;11.60;;
59474;SDS011;45288;51.136;16.928;2023-03-01T13:55:48;19.17;;;11.60;;
59474;SDS011;45288;51.136;16.928;2023-03-01T13:58:26;20.67;;;11.10;;
59474;SDS011;45288;51.136;16.928;2023-03-01T14:00:56;18.40;;;10.90;;
59474;SDS011;45288;51.136;16.928;2023-03-01T14:03:22;20.10;;;11.00;;
59474;SDS011;45288;51.136;16.928;2023-03-01T14:06:08;19.48;;;11.25;;
59474;SDS011;45288;51.136;16.928;2023-03-01T14:08:37;28.05;;;12.55;;
59474;SDS011;45288;51.136;16.928;2023-03-01T14:18:40;20.10;;;11.85;;
59474;SDS011;45288;51.136;16.928;2023-03-01T14:21:12;19.88;;;11.68;;
59474;SDS011;45288;51.136;16.928;2023-03-01T14:23:39;19.27;;;11.10;;
59474;SDS011;45288;51.136;16.928;2023-03-01T14:26:05;20.25;;;12.00;;
59474;SDS011;45288;51.136;16.928;2023-03-01T14:28:31;24.25;;;12.43;;
59474;SDS011;45288;51.136;16.928;2023-03-01T14:31:03;21.50;;;11.65;;
59474;SDS011;45288;51.136;16.928;2023-03-01T14:33:35;26.15;;;13.07;;
59474;SDS011;45288;51.136;16.928;2023-03-01T14:36:08;23.38;;;12.80;;
59474;SDS011;45288;51.136;16.928;2023-03-01T14:38:34;22.43;;;12.47;;
59474;SDS011;45288;51.136;16.928;2023-03-01T14:41:02;22.90;;;12.32;;
59474;SDS011;45288;51.136;16.928;2023-03-01T14:43:28;23.58;;;12.38;;
59474;SDS011;45288;51.136;16.928;2023-03-01T14:45:54;20.40;;;12.02;;
59474;SDS011;45288;51.136;16.928;2023-03-01T14:48:20;24.87;;;13.40;;
59474;SDS011;45288;51.136;16.928;2023-03-01T14:50:46;21.60;;;12.00;;
59474;SDS011;45288;51.136;16.928;2023-03-01T14:53:15;22.70;;;13.10;;
59474;SDS011;45288;51.136;16.928;2023-03-01T14:55:42;23.20;;;12.75;;
59474;SDS011;45288;51.136;16.928;2023-03-01T14:58:11;26.25;;;13.32;;
59474;SDS011;45288;51.136;16.928;2023-03-01T15:00:37;24.48;;;12.32;;
59474;SDS011;45288;51.136;16.928;2023-03-01T15:03:07;21.02;;;12.15;;
59474;SDS011;45288;51.136;16.928;2023-03-01T15:05:39;21.67;;;12.05;;
59474;SDS011;45288;51.136;16.928;2023-03-01T15:08:05;25.55;;;12.63;;
59474;SDS011;45288;51.136;16.928;2023-03-01T15:10:32;23.05;;;12.38;;
59474;SDS011;45288;51.136;16.928;2023-03-01T15:13:13;22.65;;;11.95;;
59474;SDS011;45288;51.136;16.928;2023-03-01T15:15:45;22.45;;;12.48;;
59474;SDS011;45288;51.136;16.928;2023-03-01T15:18:19;25.77;;;13.05;;
59474;SDS011;45288;51.136;16.928;2023-03-01T15:20:46;20.80;;;12.20;;
59474;SDS011;45288;51.136;16.928;2023-03-01T15:23:22;20.95;;;12.18;;
59474;SDS011;45288;51.136;16.928;2023-03-01T15:25:49;22.40;;;13.00;;
59474;SDS011;45288;51.136;16.928;2023-03-01T15:28:22;25.08;;;13.48;;
59474;SDS011;45288;51.136;16.928;2023-03-01T15:30:52;24.15;;;13.15;;
59474;SDS011;45288;51.136;16.928;2023-03-01T15:33:25;24.80;;;13.85;;
59474;SDS011;45288;51.136;16.928;2023-03-01T15:35:54;25.88;;;13.77;;
59474;SDS011;45288;51.136;16.928;2023-03-01T15:38:36;25.10;;;14.13;;
59474;SDS011;45288;51.136;16.928;2023-03-01T15:41:25;28.45;;;14.90;;